createdAt,value
2023-03-12T00:00:09.091Z,5.63
2023-03-12T00:00:41.986Z,5.43
2023-03-12T00:01:20.200Z,5.47
2023-03-12T00:01:51.936Z,5.77
2023-03-12T00:02:23.775Z,5.47
2023-03-12T00:02:56.079Z,5.27
2023-03-12T00:03:28.061Z,4.97
2023-03-12T00:04:02.327Z,5.07
2023-03-12T00:04:36.179Z,5.03
2023-03-12T00:05:08.150Z,5.07
2023-03-12T00:05:41.692Z,5.43
2023-03-12T00:06:14.348Z,5.33
2023-03-12T00:06:46.167Z,5.20
2023-03-12T00:07:17.958Z,4.87
2023-03-12T00:07:50.361Z,5.30
2023-03-12T00:08:22.148Z,5.50
2023-03-12T00:08:56.300Z,5.53
2023-03-12T00:09:28.527Z,5.93
2023-03-12T00:10:00.257Z,5.60
2023-03-12T00:10:32.077Z,5.47
2023-03-12T00:11:12.398Z,5.17
2023-03-12T00:11:44.236Z,4.80
2023-03-12T00:12:16.057Z,5.13
2023-03-12T00:12:47.838Z,5.47
2023-03-12T00:13:19.586Z,4.93
2023-03-12T00:13:53.386Z,5.80
2023-03-12T00:14:25.205Z,6.07
2023-03-12T00:14:57.081Z,5.67
2023-03-12T00:15:28.836Z,5.37
2023-03-12T00:16:05.466Z,5.70
2023-03-12T00:16:39.695Z,5.73
2023-03-12T00:17:11.505Z,5.57
2023-03-12T00:17:43.373Z,5.43
2023-03-12T00:18:15.187Z,5.50
2023-03-12T00:18:52.336Z,5.23
2023-03-12T00:19:24.229Z,5.90
2023-03-12T00:19:56.462Z,5.27
2023-03-12T00:20:28.236Z,4.73
2023-03-12T00:21:00.502Z,4.97
2023-03-12T00:21:32.360Z,5.43
2023-03-12T00:22:04.206Z,5.00
2023-03-12T00:22:37.579Z,5.53
2023-03-12T00:23:09.413Z,5.70
2023-03-12T00:23:41.201Z,5.57
2023-03-12T00:24:12.941Z,5.50
2023-03-12T00:24:44.766Z,5.33
2023-03-12T00:25:16.907Z,5.47
2023-03-12T00:25:48.606Z,5.57
2023-03-12T00:26:21.593Z,5.77
2023-03-12T00:26:53.375Z,5.27
2023-03-12T00:27:26.624Z,5.70
2023-03-12T00:27:58.658Z,5.80
2023-03-12T00:28:31.239Z,5.97
2023-03-12T00:29:03.001Z,5.73
2023-03-12T00:29:36.164Z,5.93
2023-03-12T00:30:09.017Z,5.77
2023-03-12T00:30:40.777Z,5.83
2023-03-12T00:31:16.964Z,5.77
2023-03-12T00:31:49.025Z,5.70
2023-03-12T00:32:21.353Z,5.47
2023-03-12T00:32:53.170Z,5.73
2023-03-12T00:33:26.534Z,5.77
2023-03-12T00:33:59.944Z,5.53
2023-03-12T00:34:31.686Z,5.33
2023-03-12T00:35:05.133Z,5.43
2023-03-12T00:35:39.220Z,5.60
2023-03-12T00:36:11.552Z,5.90
2023-03-12T00:36:43.379Z,5.50
2023-03-12T00:37:15.140Z,5.73
2023-03-12T00:37:46.982Z,5.70
2023-03-12T00:38:18.841Z,5.50
2023-03-12T00:38:51.685Z,6.03
2023-03-12T00:39:23.522Z,6.07
2023-03-12T00:39:55.449Z,5.23
2023-03-12T00:40:27.318Z,5.73
2023-03-12T00:40:59.127Z,5.73
2023-03-12T00:41:30.924Z,6.23
2023-03-12T00:42:02.735Z,6.40
2023-03-12T00:42:34.468Z,6.13
2023-03-12T00:43:06.253Z,5.80
2023-03-12T00:43:38.277Z,6.07
2023-03-12T00:44:10.182Z,6.57
2023-03-12T00:44:42.097Z,5.80
2023-03-12T00:45:13.852Z,5.73
2023-03-12T00:45:45.615Z,5.93
2023-03-12T00:46:18.665Z,6.27
2023-03-12T00:46:50.503Z,6.07
2023-03-12T00:47:22.376Z,6.50
2023-03-12T00:47:54.670Z,6.17
2023-03-12T00:48:26.546Z,5.70
2023-03-12T00:48:58.306Z,6.20
2023-03-12T00:49:30.128Z,6.57
2023-03-12T00:50:02.076Z,5.87
2023-03-12T00:50:33.853Z,5.87
2023-03-12T00:51:06.243Z,5.90
2023-03-12T00:51:38.521Z,6.57
2023-03-12T00:52:10.506Z,6.63
2023-03-12T00:52:42.406Z,6.40
2023-03-12T00:53:14.208Z,6.37
2023-03-12T00:53:46.034Z,6.53
2023-03-12T00:54:17.862Z,5.53
2023-03-12T00:54:49.764Z,5.83
2023-03-12T00:55:21.730Z,6.43
2023-03-12T00:55:53.727Z,6.60
2023-03-12T00:56:25.873Z,6.33
2023-03-12T00:56:57.842Z,6.43
2023-03-12T00:57:30.052Z,6.40
2023-03-12T00:58:01.866Z,6.87
2023-03-12T00:58:33.651Z,6.47
2023-03-12T00:59:05.414Z,6.87
2023-03-12T00:59:40.470Z,7.00
2023-03-12T01:00:12.904Z,7.13
2023-03-12T01:00:44.924Z,6.57
2023-03-12T01:01:16.914Z,7.27
2023-03-12T01:01:48.913Z,7.43
2023-03-12T01:02:20.707Z,7.00
2023-03-12T01:02:52.494Z,6.97
2023-03-12T01:03:24.468Z,6.63
2023-03-12T01:03:57.296Z,7.10
2023-03-12T01:04:29.162Z,6.17
2023-03-12T01:05:00.978Z,6.80
2023-03-12T01:05:37.750Z,6.40
2023-03-12T01:06:09.841Z,6.77
2023-03-12T01:06:41.626Z,6.50
2023-03-12T01:07:13.372Z,7.20
2023-03-12T01:07:45.122Z,7.00
2023-03-12T01:08:16.925Z,7.53
2023-03-12T01:08:48.694Z,7.37
2023-03-12T01:09:20.746Z,7.27
2023-03-12T01:09:52.520Z,7.07
2023-03-12T01:10:24.602Z,6.90
2023-03-12T01:10:56.409Z,6.90
2023-03-12T01:11:28.354Z,7.27
2023-03-12T01:12:00.186Z,7.40
2023-03-12T01:12:32.167Z,7.93
2023-03-12T01:13:04.341Z,8.17
2023-03-12T01:13:36.179Z,8.07
2023-03-12T01:14:09.480Z,8.03
2023-03-12T01:14:41.225Z,8.50
2023-03-12T01:15:16.474Z,7.87
2023-03-12T01:15:48.797Z,7.03
2023-03-12T01:16:20.814Z,7.73
2023-03-12T01:16:52.788Z,7.77
2023-03-12T01:17:24.618Z,7.47
2023-03-12T01:17:56.404Z,7.63
2023-03-12T01:18:28.236Z,7.97
2023-03-12T01:19:02.207Z,7.80
2023-03-12T01:19:33.972Z,8.03
2023-03-12T01:20:06.443Z,7.70
2023-03-12T01:20:38.812Z,7.60
2023-03-12T01:21:10.666Z,7.30
2023-03-12T01:21:42.575Z,7.97
2023-03-12T01:22:14.637Z,7.47
2023-03-12T01:22:46.528Z,7.73
2023-03-12T01:23:18.455Z,8.10
2023-03-12T01:23:50.713Z,8.10
2023-03-12T01:24:22.662Z,8.40
2023-03-12T01:24:54.445Z,8.33
2023-03-12T01:25:26.225Z,7.97
2023-03-12T01:25:58.537Z,7.90
2023-03-12T01:26:30.434Z,7.73
2023-03-12T01:27:02.271Z,7.97
2023-03-12T01:27:34.030Z,8.70
2023-03-12T01:28:06.026Z,8.13
2023-03-12T01:28:37.843Z,8.37
2023-03-12T01:29:09.640Z,7.90
2023-03-12T01:29:41.431Z,8.03
2023-03-12T01:30:13.620Z,8.67
2023-03-12T01:30:45.440Z,8.43
2023-03-12T01:31:19.314Z,8.23
2023-03-12T01:31:52.362Z,8.87
2023-03-12T01:32:24.248Z,8.03
2023-03-12T01:32:56.129Z,8.97
2023-03-12T01:33:27.912Z,8.43
2023-03-12T01:33:59.685Z,8.23
2023-03-12T01:34:33.536Z,8.57
2023-03-12T01:35:06.789Z,7.47
2023-03-12T01:35:40.081Z,8.20
2023-03-12T01:36:30.855Z,7.97
2023-03-12T01:37:02.641Z,8.30
2023-03-12T01:37:34.988Z,8.10
2023-03-12T01:38:09.028Z,8.13
2023-03-12T01:38:40.776Z,8.43
2023-03-12T01:39:12.511Z,9.07
2023-03-12T01:39:44.268Z,8.80
2023-03-12T01:40:19.467Z,8.43
2023-03-12T01:40:51.249Z,8.97
2023-03-12T01:41:25.484Z,8.60
2023-03-12T01:41:57.229Z,8.53
2023-03-12T01:42:29.062Z,7.77
2023-03-12T01:43:26.335Z,7.80
2023-03-12T01:43:59.872Z,7.47
2023-03-12T01:44:31.783Z,7.83
2023-03-12T01:45:05.396Z,8.23
2023-03-12T01:46:07.345Z,8.13
2023-03-12T01:46:43.318Z,8.40
2023-03-12T01:47:15.087Z,8.60
2023-03-12T01:47:46.873Z,8.60
2023-03-12T01:48:20.241Z,8.67
2023-03-12T01:48:57.859Z,7.97
2023-03-12T01:49:33.488Z,7.53
2023-03-12T01:50:05.902Z,7.87
2023-03-12T01:50:38.855Z,8.20
2023-03-12T01:51:13.957Z,8.50
2023-03-12T01:51:52.424Z,8.57
2023-03-12T01:52:38.213Z,8.80
2023-03-12T01:53:10.083Z,8.50
2023-03-12T01:53:47.332Z,8.27
2023-03-12T01:54:49.589Z,8.47
2023-03-12T01:55:21.432Z,8.43
2023-03-12T01:55:53.227Z,9.00
2023-03-12T01:56:30.633Z,8.80
2023-03-12T01:57:06.452Z,8.70
2023-03-12T01:57:58.872Z,8.67
2023-03-12T01:58:36.190Z,9.13
2023-03-12T01:59:14.331Z,8.80
2023-03-12T01:59:52.805Z,8.07
2023-03-12T02:00:28.278Z,9.10
2023-03-12T02:01:01.214Z,9.33
2023-03-12T02:01:33.678Z,9.33
2023-03-12T02:02:07.203Z,8.90
2023-03-12T02:02:39.807Z,8.87
2023-03-12T02:03:13.849Z,8.63
2023-03-12T02:03:52.168Z,8.67
2023-03-12T02:04:27.443Z,8.70
2023-03-12T02:05:08.005Z,8.40
2023-03-12T02:05:51.562Z,8.90
2023-03-12T02:06:37.193Z,8.77
2023-03-12T02:07:15.085Z,8.57
2023-03-12T02:07:47.343Z,8.20
2023-03-12T02:08:19.781Z,9.63
2023-03-12T02:08:52.404Z,9.63
2023-03-12T02:09:24.876Z,8.77
2023-03-12T02:09:57.155Z,8.60
2023-03-12T02:10:29.058Z,8.77
2023-03-12T02:11:00.818Z,8.93
2023-03-12T02:11:32.926Z,9.03
2023-03-12T02:12:05.352Z,9.50
2023-03-12T02:12:37.089Z,9.27
2023-03-12T02:13:09.004Z,8.80
2023-03-12T02:13:41.001Z,9.17
2023-03-12T02:14:12.839Z,9.00
2023-03-12T02:14:45.016Z,9.90
2023-03-12T02:15:17.277Z,9.80
2023-03-12T02:15:49.189Z,9.00
2023-03-12T02:16:21.311Z,8.63
2023-03-12T02:16:54.932Z,9.40
2023-03-12T02:17:26.799Z,8.90
2023-03-12T02:17:58.880Z,8.93
2023-03-12T02:18:31.230Z,8.93
2023-03-12T02:19:08.068Z,9.37
2023-03-12T02:19:58.145Z,8.90
2023-03-12T02:21:04.829Z,9.87
2023-03-12T02:21:38.718Z,9.60
2023-03-12T02:22:11.582Z,9.63
2023-03-12T02:22:51.516Z,9.50
2023-03-12T02:23:55.917Z,9.60
2023-03-12T02:24:52.483Z,8.90
2023-03-12T02:25:31.141Z,10.17
2023-03-12T02:26:05.664Z,9.20
2023-03-12T02:26:39.474Z,9.63
2023-03-12T02:27:12.960Z,10.03
2023-03-12T02:27:46.163Z,9.10
2023-03-12T02:28:21.936Z,9.10
2023-03-12T02:28:55.729Z,10.10
2023-03-12T02:29:33.020Z,9.43
2023-03-12T02:30:05.342Z,9.27
2023-03-12T02:30:40.272Z,9.40
2023-03-12T02:31:17.960Z,9.33
2023-03-12T02:31:54.951Z,9.73
2023-03-12T02:32:33.005Z,9.57
2023-03-12T02:33:09.117Z,9.40
2023-03-12T02:33:41.269Z,8.33
2023-03-12T02:34:13.081Z,8.43
2023-03-12T02:34:44.859Z,8.83
2023-03-12T02:35:17.600Z,9.47
2023-03-12T02:35:49.423Z,9.97
2023-03-12T02:36:21.186Z,9.57
2023-03-12T02:36:52.917Z,8.80
2023-03-12T02:37:24.632Z,9.57
2023-03-12T02:37:57.501Z,10.07
2023-03-12T02:38:37.432Z,9.67
2023-03-12T02:39:12.696Z,9.40
2023-03-12T02:39:50.312Z,9.73
2023-03-12T02:40:47.919Z,10.10
2023-03-12T02:41:19.709Z,9.73
2023-03-12T02:41:55.672Z,9.77
2023-03-12T02:42:27.600Z,9.57
2023-03-12T02:43:00.941Z,10.17
2023-03-12T02:43:33.010Z,10.37
2023-03-12T02:44:11.525Z,10.27
2023-03-12T02:44:43.891Z,9.80
2023-03-12T02:45:16.008Z,9.67
2023-03-12T02:45:47.922Z,9.20
2023-03-12T02:46:20.823Z,9.37
2023-03-12T02:46:56.022Z,9.67
2023-03-12T02:47:27.763Z,9.70
2023-03-12T02:47:59.661Z,9.60
2023-03-12T02:48:31.561Z,9.83
2023-03-12T02:49:03.919Z,9.13
2023-03-12T02:49:35.800Z,9.67
2023-03-12T02:50:08.614Z,10.47
2023-03-12T02:50:58.948Z,10.10
2023-03-12T02:51:30.836Z,9.17
2023-03-12T02:52:04.249Z,9.17
2023-03-12T02:52:38.050Z,9.33
2023-03-12T02:53:09.853Z,10.27
2023-03-12T02:53:41.658Z,9.67
2023-03-12T02:54:16.039Z,10.13
2023-03-12T02:54:47.761Z,9.33
2023-03-12T02:55:19.921Z,10.03
2023-03-12T02:55:51.680Z,9.77
2023-03-12T02:56:26.403Z,9.67
2023-03-12T02:56:58.669Z,9.50
2023-03-12T02:57:30.396Z,9.60
2023-03-12T02:58:02.149Z,9.47
2023-03-12T02:58:33.988Z,9.83
2023-03-12T02:59:06.806Z,10.13
2023-03-12T02:59:38.544Z,9.93
2023-03-12T03:00:12.638Z,10.10
2023-03-12T03:00:44.473Z,10.60
2023-03-12T03:01:17.303Z,10.00
2023-03-12T03:01:56.275Z,9.37
2023-03-12T03:02:28.045Z,10.17
2023-03-12T03:03:00.524Z,9.77
2023-03-12T03:03:32.381Z,10.37
2023-03-12T03:04:06.197Z,10.83
2023-03-12T03:04:38.250Z,10.00
2023-03-12T03:05:11.907Z,9.57
2023-03-12T03:05:44.016Z,9.07
2023-03-12T03:06:16.956Z,9.93
2023-03-12T03:06:48.853Z,9.60
2023-03-12T03:07:20.612Z,10.07
2023-03-12T03:07:52.729Z,9.27
2023-03-12T03:08:24.595Z,9.30
2023-03-12T03:08:56.366Z,10.30
2023-03-12T03:09:28.954Z,9.67
2023-03-12T03:10:04.421Z,9.27
2023-03-12T03:10:36.521Z,9.30
2023-03-12T03:11:08.872Z,9.63
2023-03-12T03:11:41.122Z,9.57
2023-03-12T03:12:13.003Z,9.70
2023-03-12T03:12:45.013Z,10.23
2023-03-12T03:13:17.219Z,9.23
2023-03-12T03:13:49.025Z,9.80
2023-03-12T03:14:20.857Z,10.07
2023-03-12T03:14:52.618Z,9.37
2023-03-12T03:15:24.466Z,10.00
2023-03-12T03:15:58.300Z,10.50
2023-03-12T03:16:30.530Z,10.13
2023-03-12T03:17:02.329Z,9.43
2023-03-12T03:17:34.058Z,9.30
2023-03-12T03:18:06.127Z,9.37
2023-03-12T03:18:38.284Z,9.33
2023-03-12T03:19:11.452Z,9.90
2023-03-12T03:19:43.281Z,9.57
2023-03-12T03:20:15.129Z,9.77
2023-03-12T03:20:57.451Z,9.63
2023-03-12T03:21:30.103Z,10.20
2023-03-12T03:22:01.967Z,9.77
2023-03-12T03:22:33.811Z,9.93
2023-03-12T03:23:05.856Z,10.63
2023-03-12T03:23:37.790Z,10.40
2023-03-12T03:24:09.617Z,10.33
2023-03-12T03:24:41.399Z,10.83
2023-03-12T03:25:13.212Z,10.63
2023-03-12T03:25:46.880Z,10.23
2023-03-12T03:26:21.446Z,9.90
2023-03-12T03:26:53.211Z,9.87
2023-03-12T03:27:25.179Z,10.63
2023-03-12T03:27:57.004Z,10.80
2023-03-12T03:28:30.483Z,10.73
2023-03-12T03:29:02.591Z,10.23
2023-03-12T03:29:34.752Z,10.17
2023-03-12T03:30:07.445Z,10.40
2023-03-12T03:30:39.225Z,10.53
2023-03-12T03:31:11.136Z,9.83
2023-03-12T03:31:43.316Z,10.40
2023-03-12T03:32:15.243Z,10.70
2023-03-12T03:32:48.380Z,10.87
2023-03-12T03:33:20.838Z,9.90
2023-03-12T03:33:53.018Z,10.87
2023-03-12T03:34:25.783Z,11.63
2023-03-12T03:34:57.505Z,10.97
2023-03-12T03:35:29.283Z,10.83
2023-03-12T03:36:01.562Z,10.73
2023-03-12T03:36:33.335Z,10.43
2023-03-12T03:37:05.783Z,10.10
2023-03-12T03:37:37.565Z,10.13
2023-03-12T03:38:09.412Z,10.53
2023-03-12T03:38:42.173Z,10.07
2023-03-12T03:39:13.919Z,10.33
2023-03-12T03:39:45.670Z,10.63
2023-03-12T03:40:18.146Z,9.57
2023-03-12T03:40:49.945Z,10.27
2023-03-12T03:41:23.042Z,10.20
2023-03-12T03:41:54.930Z,10.63
2023-03-12T03:42:27.710Z,10.13
2023-03-12T03:42:59.592Z,10.73
2023-03-12T03:43:31.635Z,10.27
2023-03-12T03:44:05.384Z,10.40
2023-03-12T03:44:37.269Z,10.93
2023-03-12T03:45:09.901Z,10.53
2023-03-12T03:45:41.668Z,10.17
2023-03-12T03:46:14.757Z,10.40
2023-03-12T03:46:47.871Z,10.60
2023-03-12T03:47:19.908Z,10.60
2023-03-12T03:47:51.745Z,10.83
2023-03-12T03:48:23.543Z,10.37
2023-03-12T03:48:55.408Z,9.80
2023-03-12T03:49:27.216Z,10.33
2023-03-12T03:49:58.977Z,10.37
2023-03-12T03:50:30.783Z,10.73
2023-03-12T03:51:05.061Z,10.53
2023-03-12T03:51:36.879Z,11.00
2023-03-12T03:52:08.755Z,10.83
2023-03-12T03:52:40.560Z,10.63
2023-03-12T03:53:13.039Z,10.93
2023-03-12T03:53:44.851Z,11.53
2023-03-12T03:54:16.708Z,10.53
2023-03-12T03:54:48.479Z,10.10
2023-03-12T03:55:20.220Z,9.67
2023-03-12T03:55:52.034Z,10.20
2023-03-12T03:56:23.897Z,10.77
2023-03-12T03:56:55.730Z,10.20
2023-03-12T03:57:28.143Z,10.40
2023-03-12T03:57:59.981Z,10.87
2023-03-12T03:58:33.213Z,10.40
2023-03-12T03:59:04.983Z,9.70
2023-03-12T03:59:36.768Z,10.63
2023-03-12T04:00:10.127Z,11.00
2023-03-12T04:00:44.994Z,10.23
2023-03-12T04:01:16.892Z,10.33
2023-03-12T04:01:48.660Z,10.13
2023-03-12T04:02:22.185Z,10.27
2023-03-12T04:02:55.540Z,10.83
2023-03-12T04:03:27.427Z,10.60
2023-03-12T04:04:00.046Z,11.50
2023-03-12T04:04:31.769Z,11.30
2023-03-12T04:05:03.716Z,11.53
2023-03-12T04:05:35.545Z,11.30
2023-03-12T04:06:07.704Z,11.03
2023-03-12T04:06:58.179Z,10.63
2023-03-12T04:07:29.990Z,9.93
2023-03-12T04:08:03.320Z,10.20
2023-03-12T04:08:37.299Z,10.40
2023-03-12T04:09:09.074Z,10.67
2023-03-12T04:09:40.925Z,10.40
2023-03-12T04:10:13.036Z,9.90
2023-03-12T04:10:44.751Z,10.33
2023-03-12T04:11:19.343Z,10.17
2023-03-12T04:11:51.159Z,11.27
2023-03-12T04:12:25.968Z,10.57
2023-03-12T04:12:57.869Z,10.83
2023-03-12T04:13:29.676Z,11.63
2023-03-12T04:14:01.651Z,11.07
2023-03-12T04:14:33.580Z,11.30
2023-03-12T04:15:05.967Z,10.53
2023-03-12T04:15:37.828Z,11.07
2023-03-12T04:16:10.449Z,10.87
2023-03-12T04:16:42.218Z,10.00
2023-03-12T04:17:13.964Z,10.70
2023-03-12T04:17:45.800Z,10.57
2023-03-12T04:18:18.263Z,10.40
2023-03-12T04:18:50.127Z,10.57
2023-03-12T04:19:21.926Z,10.97
2023-03-12T04:19:53.726Z,11.30
2023-03-12T04:20:25.550Z,10.77
2023-03-12T04:20:57.274Z,10.70
2023-03-12T04:21:29.132Z,10.97
2023-03-12T04:22:02.015Z,11.17
2023-03-12T04:22:34.221Z,11.43
2023-03-12T04:23:06.074Z,11.73
2023-03-12T04:23:38.638Z,11.47
2023-03-12T04:24:15.415Z,11.80
2023-03-12T04:24:47.187Z,11.87
2023-03-12T04:25:19.121Z,12.23
2023-03-12T04:25:50.841Z,11.77
2023-03-12T04:26:22.648Z,11.47
2023-03-12T04:26:54.440Z,11.83
2023-03-12T04:27:26.216Z,11.63
2023-03-12T04:27:58.020Z,11.03
2023-03-12T04:28:30.837Z,10.97
2023-03-12T04:29:02.596Z,11.20
2023-03-12T04:29:34.313Z,11.13
2023-03-12T04:30:06.706Z,12.03
2023-03-12T04:30:38.454Z,11.40
2023-03-12T04:31:11.694Z,11.37
2023-03-12T04:31:43.615Z,11.43
2023-03-12T04:32:15.525Z,11.33
2023-03-12T04:32:47.873Z,11.87
2023-03-12T04:33:19.698Z,12.63
2023-03-12T04:33:51.552Z,11.87
2023-03-12T04:34:23.332Z,11.20
2023-03-12T04:34:55.182Z,11.30
2023-03-12T04:35:26.985Z,11.47
2023-03-12T04:35:59.509Z,11.10
2023-03-12T04:36:31.816Z,12.17
2023-03-12T04:37:04.088Z,12.17
2023-03-12T04:37:35.849Z,11.67
2023-03-12T04:38:07.603Z,11.63
2023-03-12T04:38:39.503Z,10.83
2023-03-12T04:39:11.309Z,10.80
2023-03-12T04:39:44.478Z,10.93
2023-03-12T04:40:16.460Z,11.47
2023-03-12T04:40:57.055Z,11.43
2023-03-12T04:41:28.878Z,11.57
2023-03-12T04:42:00.728Z,10.50
2023-03-12T04:42:32.549Z,10.80
2023-03-12T04:43:05.489Z,11.40
2023-03-12T04:43:37.377Z,10.87
2023-03-12T04:44:12.244Z,11.07
2023-03-12T04:44:44.503Z,11.20
2023-03-12T04:45:16.449Z,11.77
2023-03-12T04:45:48.225Z,12.43
2023-03-12T04:46:20.086Z,12.10
2023-03-12T04:46:51.963Z,12.23
2023-03-12T04:47:23.816Z,12.03
2023-03-12T04:47:55.671Z,11.77
2023-03-12T04:48:28.080Z,11.53
2023-03-12T04:49:02.697Z,11.93
2023-03-12T04:49:34.584Z,11.17
2023-03-12T04:50:06.892Z,11.23
2023-03-12T04:50:39.340Z,10.97
2023-03-12T04:51:11.194Z,11.03
2023-03-12T04:51:43.451Z,11.03
2023-03-12T04:52:17.681Z,11.10
2023-03-12T04:52:49.490Z,10.67
2023-03-12T04:53:22.266Z,11.23
2023-03-12T04:53:54.105Z,10.37
2023-03-12T04:54:25.961Z,11.00
2023-03-12T04:54:59.558Z,11.13
2023-03-12T04:55:31.371Z,11.63
2023-03-12T04:56:03.320Z,11.50
2023-03-12T04:56:35.593Z,11.80
2023-03-12T04:57:07.338Z,11.47
2023-03-12T04:57:39.131Z,10.90
2023-03-12T04:58:10.847Z,10.90
2023-03-12T04:58:42.729Z,12.20
2023-03-12T04:59:14.484Z,12.50
2023-03-12T04:59:46.445Z,11.90
2023-03-12T05:00:18.638Z,12.03
2023-03-12T05:00:50.899Z,11.60
2023-03-12T05:01:31.799Z,12.00
2023-03-12T05:02:03.590Z,12.60
2023-03-12T05:02:36.311Z,12.60
2023-03-12T05:03:08.657Z,13.20
2023-03-12T05:03:40.403Z,12.57
2023-03-12T05:04:12.231Z,12.10
2023-03-12T05:04:44.250Z,12.40
2023-03-12T05:05:16.019Z,12.03
2023-03-12T05:05:47.751Z,11.77
2023-03-12T05:06:20.751Z,12.13
2023-03-12T05:06:52.598Z,12.37
2023-03-12T05:07:24.489Z,12.13
2023-03-12T05:07:56.341Z,11.83
2023-03-12T05:08:28.048Z,11.90
2023-03-12T05:09:00.273Z,11.73
2023-03-12T05:09:32.101Z,12.47
2023-03-12T05:10:04.468Z,12.97
2023-03-12T05:10:36.563Z,13.20
2023-03-12T05:11:08.343Z,11.80
2023-03-12T05:11:40.124Z,11.70
2023-03-12T05:12:11.921Z,12.53
2023-03-12T05:12:43.738Z,13.17
2023-03-12T05:13:17.937Z,14.17
2023-03-12T05:13:49.868Z,13.77
2023-03-12T05:14:21.686Z,13.47
2023-03-12T05:14:53.445Z,14.20
2023-03-12T05:15:25.337Z,13.93
2023-03-12T05:15:57.090Z,13.33
2023-03-12T05:16:28.955Z,13.23
2023-03-12T05:17:00.731Z,13.93
2023-03-12T05:17:32.549Z,15.10
2023-03-12T05:18:04.277Z,15.63
2023-03-12T05:18:36.540Z,16.17
2023-03-12T05:19:08.412Z,14.93
2023-03-12T05:19:40.179Z,14.60
2023-03-12T05:20:13.090Z,14.93
2023-03-12T05:20:44.847Z,15.50
2023-03-12T05:21:19.977Z,15.83
2023-03-12T05:21:51.758Z,17.00
2023-03-12T05:22:23.557Z,18.53
2023-03-12T05:22:55.272Z,19.47
2023-03-12T05:23:28.188Z,20.93
2023-03-12T05:24:00.446Z,20.67
2023-03-12T05:24:32.307Z,20.27
2023-03-12T05:25:04.858Z,21.47
2023-03-12T05:25:40.422Z,21.67
2023-03-12T05:26:32.985Z,20.67
2023-03-12T05:27:04.998Z,18.57
2023-03-12T05:27:37.587Z,20.13
2023-03-12T05:28:09.701Z,21.10
2023-03-12T05:28:41.437Z,20.50
2023-03-12T05:29:13.236Z,21.37
2023-03-12T05:29:45.174Z,24.80
2023-03-12T05:30:17.205Z,27.17
2023-03-12T05:30:48.929Z,26.73
2023-03-12T05:31:21.654Z,26.10
2023-03-12T05:31:53.577Z,25.07
2023-03-12T05:32:25.480Z,17.83
2023-03-12T05:32:57.326Z,17.73
2023-03-12T05:33:30.311Z,18.03
2023-03-12T05:34:04.525Z,20.57
2023-03-12T05:34:36.347Z,20.67
2023-03-12T05:35:08.516Z,21.00
2023-03-12T05:35:40.241Z,20.03
2023-03-12T05:36:13.137Z,16.67
2023-03-12T05:36:45.051Z,16.27
2023-03-12T05:37:16.873Z,15.63
2023-03-12T05:37:48.645Z,14.87
2023-03-12T05:38:20.462Z,15.83
2023-03-12T05:38:52.168Z,15.57
2023-03-12T05:39:25.211Z,15.53
2023-03-12T05:39:56.972Z,15.03
2023-03-12T05:40:28.760Z,14.63
2023-03-12T05:41:00.921Z,15.07
2023-03-12T05:41:32.646Z,14.77
2023-03-12T05:42:05.138Z,14.73
2023-03-12T05:42:37.030Z,14.67
2023-03-12T05:43:08.905Z,15.43
2023-03-12T05:43:40.694Z,13.93
2023-03-12T05:44:16.251Z,14.23
2023-03-12T05:44:48.036Z,13.87
2023-03-12T05:45:20.017Z,14.13
2023-03-12T05:45:53.715Z,14.00
2023-03-12T05:46:26.734Z,13.23
2023-03-12T05:46:59.111Z,12.43
2023-03-12T05:47:31.284Z,12.67
2023-03-12T05:48:03.126Z,12.47
2023-03-12T05:48:34.914Z,11.97
2023-03-12T05:49:06.640Z,13.43
2023-03-12T05:49:38.502Z,12.60
2023-03-12T05:50:11.455Z,12.40
2023-03-12T05:50:43.420Z,12.60
2023-03-12T05:51:15.423Z,12.50
2023-03-12T05:51:50.807Z,12.93
2023-03-12T05:52:22.608Z,13.10
2023-03-12T05:52:54.396Z,12.23
2023-03-12T05:53:26.264Z,11.73
2023-03-12T05:53:58.148Z,12.43
2023-03-12T05:54:29.916Z,11.50
2023-03-12T05:55:01.705Z,12.30
2023-03-12T05:55:37.420Z,12.00
2023-03-12T05:56:12.619Z,12.27
2023-03-12T05:57:03.522Z,12.30
2023-03-12T05:57:35.300Z,12.50
2023-03-12T05:58:08.027Z,11.90
2023-03-12T05:58:40.552Z,12.43
2023-03-12T05:59:12.442Z,12.07
2023-03-12T05:59:44.166Z,11.83
2023-03-12T06:00:16.571Z,12.37
2023-03-12T06:00:48.420Z,12.67
2023-03-12T06:01:25.944Z,12.30
2023-03-12T06:01:58.008Z,11.70
2023-03-12T06:02:29.821Z,12.67
2023-03-12T06:03:01.754Z,13.20
2023-03-12T06:03:33.628Z,12.40
2023-03-12T06:04:05.912Z,12.37
2023-03-12T06:04:37.733Z,12.60
2023-03-12T06:05:11.169Z,12.40
2023-03-12T06:05:44.716Z,12.40
2023-03-12T06:06:17.408Z,12.20
2023-03-12T06:06:49.228Z,12.27
2023-03-12T06:07:20.963Z,11.53
2023-03-12T06:07:52.782Z,11.33
2023-03-12T06:08:24.999Z,12.10
2023-03-12T06:08:56.808Z,12.77
2023-03-12T06:09:28.554Z,12.37
2023-03-12T06:10:00.454Z,12.40
2023-03-12T06:10:32.258Z,11.77
2023-03-12T06:11:04.145Z,12.70
2023-03-12T06:11:35.995Z,13.17
2023-03-12T06:12:07.898Z,12.83
2023-03-12T06:12:39.806Z,12.80
2023-03-12T06:13:11.814Z,12.83
2023-03-12T06:13:43.908Z,17.60
2023-03-12T06:14:15.688Z,197.83
2023-03-12T06:14:47.432Z,274.20
2023-03-12T06:15:19.262Z,42.87
2023-03-12T06:15:51.069Z,37.93
2023-03-12T06:16:26.354Z,30.90
2023-03-12T06:16:58.278Z,18.10
2023-03-12T06:17:32.032Z,14.60
2023-03-12T06:18:03.869Z,13.40
2023-03-12T06:18:36.699Z,13.90
2023-03-12T06:19:09.083Z,14.00
2023-03-12T06:19:40.839Z,13.60
2023-03-12T06:20:13.194Z,14.33
2023-03-12T06:20:45.008Z,16.63
2023-03-12T06:21:19.726Z,15.50
2023-03-12T06:21:51.586Z,15.70
2023-03-12T06:22:23.432Z,17.10
2023-03-12T06:22:55.258Z,16.97
2023-03-12T06:23:27.083Z,16.20
2023-03-12T06:24:00.141Z,14.80
2023-03-12T06:24:31.872Z,14.63
2023-03-12T06:25:04.327Z,14.20
2023-03-12T06:25:36.165Z,14.40
2023-03-12T06:26:08.599Z,15.07
2023-03-12T06:26:40.721Z,14.97
2023-03-12T06:27:12.437Z,16.00
2023-03-12T06:27:44.302Z,15.07
2023-03-12T06:28:16.026Z,16.00
2023-03-12T06:28:49.844Z,16.43
2023-03-12T06:29:21.609Z,15.17
2023-03-12T06:29:53.451Z,13.93
2023-03-12T06:30:27.117Z,13.77
2023-03-12T06:30:58.872Z,13.37
2023-03-12T06:31:30.706Z,13.57
2023-03-12T06:32:02.595Z,13.50
2023-03-12T06:32:34.466Z,12.83
2023-03-12T06:33:08.976Z,13.10
2023-03-12T06:33:40.870Z,13.93
2023-03-12T06:34:12.625Z,12.93
2023-03-12T06:34:45.164Z,12.73
2023-03-12T06:35:17.041Z,12.40
2023-03-12T06:35:49.093Z,12.13
2023-03-12T06:36:23.096Z,12.77
2023-03-12T06:36:54.934Z,12.20
2023-03-12T06:37:28.136Z,12.10
2023-03-12T06:37:59.961Z,12.23
2023-03-12T06:38:31.761Z,12.50
2023-03-12T06:39:06.376Z,12.90
2023-03-12T06:39:38.687Z,12.40
2023-03-12T06:40:13.070Z,12.77
2023-03-12T06:40:54.320Z,12.00
2023-03-12T06:41:26.215Z,11.63
2023-03-12T06:41:58.046Z,11.63
2023-03-12T06:42:29.752Z,11.23
2023-03-12T06:43:01.477Z,12.40
2023-03-12T06:43:35.426Z,12.33
2023-03-12T06:44:07.243Z,12.97
2023-03-12T06:44:39.629Z,12.53
2023-03-12T06:45:11.978Z,12.20
2023-03-12T06:45:43.805Z,11.77
2023-03-12T06:46:19.113Z,12.77
2023-03-12T06:46:52.328Z,11.80
2023-03-12T06:47:24.125Z,12.10
2023-03-12T06:47:55.945Z,12.10
2023-03-12T06:48:29.366Z,12.07
2023-03-12T06:49:01.183Z,19.33
2023-03-12T06:49:34.458Z,19.07
2023-03-12T06:50:06.646Z,21.03
2023-03-12T06:50:38.751Z,22.73
2023-03-12T06:51:15.823Z,24.57
2023-03-12T06:51:47.560Z,36.77
2023-03-12T06:52:19.296Z,18.67
2023-03-12T06:52:51.172Z,17.67
2023-03-12T06:53:25.375Z,18.93
2023-03-12T06:53:57.131Z,24.10
2023-03-12T06:54:28.982Z,35.67
2023-03-12T06:55:00.753Z,23.37
2023-03-12T06:55:32.601Z,20.20
2023-03-12T06:56:04.981Z,17.90
2023-03-12T06:56:36.763Z,31.30
2023-03-12T06:57:08.525Z,45.63
2023-03-12T06:57:42.394Z,26.80
2023-03-12T06:58:14.205Z,17.73
2023-03-12T06:58:45.986Z,24.67
2023-03-12T06:59:18.528Z,28.83
2023-03-12T06:59:50.798Z,21.00
2023-03-12T07:00:22.901Z,22.27
2023-03-12T07:00:54.848Z,16.07
2023-03-12T07:01:26.674Z,18.50
2023-03-12T07:01:58.623Z,20.50
2023-03-12T07:02:30.583Z,21.67
2023-03-12T07:03:02.744Z,20.43
2023-03-12T07:03:34.994Z,20.20
2023-03-12T07:04:06.792Z,19.50
2023-03-12T07:04:38.697Z,18.17
2023-03-12T07:05:10.613Z,23.63
2023-03-12T07:05:46.822Z,19.87
2023-03-12T07:06:21.613Z,26.80
2023-03-12T07:06:53.455Z,19.70
2023-03-12T07:07:25.296Z,14.27
2023-03-12T07:07:57.501Z,13.77
2023-03-12T07:08:31.162Z,13.53
2023-03-12T07:09:03.121Z,13.37
2023-03-12T07:09:34.868Z,13.87
2023-03-12T07:10:07.216Z,14.07
2023-03-12T07:10:39.214Z,15.07
2023-03-12T07:11:11.838Z,15.43
2023-03-12T07:11:43.798Z,14.47